Cooperstwn, North Dakota
Current Conditions -  °F | °C
As of 3:35 PM on Sunday 23 Nov 2014 (Local Time) from KBAC Reporting Station
Light Snow Light Snow  
Wind Chill: 12°   Ceiling: 1700
Heat Index: 27°   Visibility: 10mi
Dew Point: 25°   Wind: 24mph
Humidity: 93%   Direction: 300°WNW
Pressure: 29.47"   Gusts: 31mph
Location:  47.4507°N, 98.2031°W
Report Text: KBAC 232135Z AUTO 30021G27KT 10SM -SN OVC017 M03/M04 A2947 RMK AO2
Loading
Personal Weather Stations






























Interactive Weather Map New forecast layout! Learn more

10-Day Weather Forecast

Advertisements
Track Severe Weather on mobile